createdAt,value
2016-05-22T00:00:35.329Z,0
2016-05-22T00:01:35.299Z,0
2016-05-22T00:02:35.287Z,0
2016-05-22T00:03:35.102Z,0
2016-05-22T00:04:35.089Z,0
2016-05-22T00:05:35.248Z,0
2016-05-22T00:06:35.063Z,0
2016-05-22T00:07:35.206Z,0
2016-05-22T00:08:35.179Z,0
2016-05-22T00:09:35.165Z,0
2016-05-22T00:10:35.151Z,0
2016-05-22T00:11:35.171Z,0
2016-05-22T00:12:35.126Z,0
2016-05-22T00:13:34.956Z,0
2016-05-22T00:14:35.367Z,0
2016-05-22T00:15:35.056Z,0
2016-05-22T00:16:34.887Z,0
2016-05-22T00:17:35.045Z,0
2016-05-22T00:18:35.017Z,0
2016-05-22T00:19:35.005Z,0
2016-05-22T00:20:34.991Z,0
2016-05-22T00:21:34.963Z,0
2016-05-22T00:22:34.950Z,0
2016-05-22T00:23:34.936Z,0
2016-05-22T00:24:34.925Z,0
2016-05-22T00:25:34.755Z,0
2016-05-22T00:26:34.898Z,0
2016-05-22T00:27:34.730Z,0
2016-05-22T00:28:34.700Z,0
2016-05-22T00:29:34.844Z,0
2016-05-22T00:30:34.659Z,0
2016-05-22T00:31:34.802Z,0
2016-05-22T00:32:34.790Z,0
2016-05-22T00:33:34.776Z,0
2016-05-22T00:34:34.748Z,0
2016-05-22T00:35:34.735Z,0
2016-05-22T00:36:34.566Z,0
2016-05-22T00:37:34.693Z,0
2016-05-22T00:38:34.696Z,0
2016-05-22T00:39:34.684Z,0
2016-05-22T00:40:34.654Z,0
2016-05-22T00:41:34.626Z,0
2016-05-22T00:42:34.973Z,0
2016-05-22T00:43:34.600Z,0
2016-05-22T00:44:34.573Z,0
2016-05-22T00:45:34.575Z,0
2016-05-22T00:46:34.389Z,0
2016-05-22T00:47:34.534Z,0
2016-05-22T00:48:34.520Z,0
2016-05-22T00:49:34.522Z,0
2016-05-22T00:50:34.322Z,0
2016-05-22T00:51:34.466Z,0
2016-05-22T00:52:34.437Z,0
2016-05-22T00:53:34.424Z,0
2016-05-22T00:54:34.411Z,0
2016-05-22T00:55:34.398Z,0
2016-05-22T00:56:34.385Z,0
2016-05-22T00:57:34.669Z,0
2016-05-22T00:58:34.344Z,0
2016-05-22T00:59:34.316Z,0
2016-05-22T01:00:34.302Z,0
2016-05-22T01:01:34.149Z,0
2016-05-22T01:02:34.120Z,0
2016-05-22T01:03:34.263Z,0
2016-05-22T01:04:34.235Z,0
2016-05-22T01:05:34.221Z,0
2016-05-22T01:06:34.209Z,0
2016-05-22T01:07:34.196Z,0
2016-05-22T01:08:34.027Z,0
2016-05-22T01:09:34.154Z,0
2016-05-22T01:10:34.142Z,0
2016-05-22T01:11:34.129Z,0
2016-05-22T01:12:34.584Z,0
2016-05-22T01:13:34.087Z,0
2016-05-22T01:14:33.903Z,0
2016-05-22T01:15:34.045Z,0
2016-05-22T01:16:34.034Z,0
2016-05-22T01:17:34.020Z,0
2016-05-22T01:18:33.991Z,0
2016-05-22T01:19:33.978Z,0
2016-05-22T01:20:33.965Z,0
2016-05-22T01:21:33.781Z,0
2016-05-22T01:22:33.925Z,0
2016-05-22T01:23:33.911Z,0
2016-05-22T01:24:33.742Z,0
2016-05-22T01:25:33.869Z,0
2016-05-22T01:26:33.856Z,0
2016-05-22T01:27:34.188Z,0
2016-05-22T01:28:33.815Z,0
2016-05-22T01:29:33.802Z,0
2016-05-22T01:30:33.632Z,0
2016-05-22T01:31:33.760Z,0
2016-05-22T01:32:33.747Z,0
2016-05-22T01:33:33.594Z,0
2016-05-22T01:34:33.706Z,0
2016-05-22T01:35:33.709Z,0
2016-05-22T01:36:33.680Z,0
2016-05-22T01:37:33.496Z,0
2016-05-22T01:38:33.638Z,0
2016-05-22T01:39:33.626Z,0
2016-05-22T01:40:33.612Z,0
2016-05-22T01:41:33.601Z,0
2016-05-22T01:42:33.571Z,0
2016-05-22T01:43:33.543Z,0
2016-05-22T01:44:33.529Z,0
2016-05-22T01:45:33.517Z,0
2016-05-22T01:46:33.489Z,0
2016-05-22T01:47:33.320Z,0
2016-05-22T01:48:33.462Z,0
2016-05-22T01:49:33.450Z,0
2016-05-22T01:50:33.421Z,0
2016-05-22T01:51:33.408Z,0
2016-05-22T01:52:33.380Z,0
2016-05-22T01:53:33.366Z,0
2016-05-22T01:54:33.354Z,0
2016-05-22T01:55:33.341Z,0
2016-05-22T01:56:33.328Z,0
2016-05-22T01:57:33.721Z,0
2016-05-22T01:58:33.286Z,0
2016-05-22T01:59:33.274Z,0
2016-05-22T02:00:33.245Z,0
2016-05-22T02:01:33.060Z,0
2016-05-22T02:02:33.203Z,0
2016-05-22T02:03:33.190Z,0
2016-05-22T02:04:33.178Z,0
2016-05-22T02:05:33.165Z,0
2016-05-22T02:06:33.135Z,0
2016-05-22T02:07:33.108Z,0
2016-05-22T02:08:32.938Z,0
2016-05-22T02:09:33.082Z,0
2016-05-22T02:10:33.068Z,0
2016-05-22T02:11:33.040Z,0
2016-05-22T02:12:33.324Z,0
2016-05-22T02:13:32.999Z,0
2016-05-22T02:14:32.829Z,0
2016-05-22T02:15:32.988Z,0
2016-05-22T02:16:32.960Z,0
2016-05-22T02:17:32.931Z,0
2016-05-22T02:18:32.918Z,0
2016-05-22T02:19:32.906Z,0
2016-05-22T02:20:32.893Z,0
2016-05-22T02:21:32.864Z,0
2016-05-22T02:22:32.695Z,0
2016-05-22T02:23:32.838Z,0
2016-05-22T02:24:32.809Z,0
2016-05-22T02:25:32.640Z,0
2016-05-22T02:26:32.784Z,0
2016-05-22T02:27:33.083Z,0
2016-05-22T02:28:32.586Z,0
2016-05-22T02:29:32.730Z,0
2016-05-22T02:30:32.560Z,0
2016-05-22T02:31:32.688Z,0
2016-05-22T02:32:32.675Z,0
2016-05-22T02:33:32.662Z,0
2016-05-22T02:34:32.477Z,0
2016-05-22T02:35:32.621Z,0
2016-05-22T02:36:32.607Z,0
2016-05-22T02:37:32.579Z,0
2016-05-22T02:38:32.410Z,0
2016-05-22T02:39:32.382Z,0
2016-05-22T02:40:32.540Z,0
2016-05-22T02:41:32.512Z,0
2016-05-22T02:42:32.343Z,0
2016-05-22T02:43:32.485Z,0
2016-05-22T02:44:32.456Z,0
2016-05-22T02:45:32.429Z,0
2016-05-22T02:46:32.275Z,0
2016-05-22T02:47:32.403Z,4
2016-05-22T02:48:32.234Z,4
2016-05-22T02:49:32.361Z,4
2016-05-22T02:50:32.348Z,4
2016-05-22T02:51:32.351Z,0
2016-05-22T02:52:32.322Z,4
2016-05-22T02:53:32.153Z,4
2016-05-22T02:54:32.297Z,8
2016-05-22T02:55:32.267Z,4
2016-05-22T02:56:32.239Z,8
2016-05-22T02:57:32.430Z,8
2016-05-22T02:58:32.213Z,8
2016-05-22T02:59:32.185Z,12
2016-05-22T03:00:32.172Z,12
2016-05-22T03:01:32.159Z,12
2016-05-22T03:02:32.130Z,12
2016-05-22T03:03:31.960Z,20
2016-05-22T03:04:32.105Z,16
2016-05-22T03:05:32.091Z,20
2016-05-22T03:06:32.079Z,24
2016-05-22T03:07:32.050Z,28
2016-05-22T03:08:32.038Z,32
2016-05-22T03:09:32.024Z,36
2016-05-22T03:10:32.010Z,44
2016-05-22T03:11:31.998Z,48
2016-05-22T03:12:31.970Z,52
2016-05-22T03:13:31.801Z,60
2016-05-22T03:14:31.787Z,68
2016-05-22T03:15:31.759Z,76
2016-05-22T03:16:31.762Z,84
2016-05-22T03:17:31.873Z,96
2016-05-22T03:18:31.705Z,108
2016-05-22T03:19:31.692Z,116
2016-05-22T03:20:31.820Z,132
2016-05-22T03:21:31.806Z,144
2016-05-22T03:22:31.778Z,156
2016-05-22T03:23:31.765Z,172
2016-05-22T03:24:31.752Z,188
2016-05-22T03:25:31.723Z,204
2016-05-22T03:26:31.726Z,220
2016-05-22T03:27:32.150Z,244
2016-05-22T03:28:31.684Z,264
2016-05-22T03:29:31.688Z,292
2016-05-22T03:30:31.535Z,320
2016-05-22T03:31:31.710Z,360
2016-05-22T03:32:31.714Z,412
2016-05-22T03:33:31.748Z,464
2016-05-22T03:34:31.724Z,520
2016-05-22T03:35:31.722Z,576
2016-05-22T03:36:31.720Z,620
2016-05-22T03:37:31.703Z,660
2016-05-22T03:38:31.701Z,696
2016-05-22T03:39:31.555Z,732
2016-05-22T03:40:31.530Z,764
2016-05-22T03:41:31.662Z,808
2016-05-22T03:42:31.731Z,848
2016-05-22T03:43:31.661Z,892
2016-05-22T03:44:31.603Z,928
2016-05-22T03:45:31.592Z,968
2016-05-22T03:46:31.581Z,996
2016-05-22T03:47:31.554Z,1020
2016-05-22T03:48:31.559Z,1044
2016-05-22T03:49:31.529Z,1076
2016-05-22T03:50:31.518Z,1116
2016-05-22T03:51:31.489Z,1160
2016-05-22T03:52:31.492Z,1204
2016-05-22T03:53:31.449Z,1256
2016-05-22T03:54:31.436Z,1312
2016-05-22T03:55:31.267Z,1372
2016-05-22T03:56:31.394Z,1436
2016-05-22T03:57:31.381Z,1504
2016-05-22T03:58:31.352Z,1576
2016-05-22T03:59:31.355Z,1644
2016-05-22T04:00:31.327Z,1716
2016-05-22T04:01:31.002Z,1792
2016-05-22T04:02:31.285Z,1876
2016-05-22T04:03:31.272Z,1956
2016-05-22T04:04:31.259Z,2044
2016-05-22T04:05:31.246Z,2144
2016-05-22T04:06:31.219Z,2260
2016-05-22T04:07:31.190Z,2392
2016-05-22T04:08:31.176Z,2544
2016-05-22T04:09:31.163Z,2708
2016-05-22T04:10:31.151Z,2848
2016-05-22T04:11:31.138Z,2976
2016-05-22T04:12:31.079Z,3100
2016-05-22T04:13:30.924Z,3224
2016-05-22T04:14:30.911Z,3340
2016-05-22T04:15:31.054Z,3464
2016-05-22T04:16:31.042Z,3604
2016-05-22T04:17:31.014Z,3764
2016-05-22T04:18:31.001Z,3908
2016-05-22T04:19:30.988Z,3988
2016-05-22T04:20:30.958Z,4056
2016-05-22T04:21:30.962Z,4148
2016-05-22T04:22:30.933Z,4276
2016-05-22T04:23:30.920Z,4400
2016-05-22T04:24:30.892Z,4496
2016-05-22T04:25:30.879Z,4608
2016-05-22T04:26:30.866Z,4708
2016-05-22T04:27:31.072Z,4812
2016-05-22T04:28:30.887Z,4904
2016-05-22T04:29:30.811Z,4976
2016-05-22T04:30:30.783Z,5048
2016-05-22T04:31:30.769Z,5112
2016-05-22T04:32:30.757Z,5184
2016-05-22T04:33:30.744Z,5272
2016-05-22T04:34:30.559Z,5368
2016-05-22T04:35:30.546Z,5480
2016-05-22T04:36:30.690Z,5640
2016-05-22T04:37:30.661Z,5804
2016-05-22T04:38:30.648Z,5900
2016-05-22T04:39:30.635Z,5952
2016-05-22T04:40:30.621Z,5968
2016-05-22T04:41:30.609Z,5952
2016-05-22T04:42:30.752Z,5948
2016-05-22T04:43:30.412Z,5936
2016-05-22T04:44:30.539Z,5900
2016-05-22T04:45:30.542Z,5840
2016-05-22T04:46:30.513Z,5732
2016-05-22T04:47:30.500Z,5640
2016-05-22T04:48:30.487Z,5600
2016-05-22T04:49:30.475Z,5584
2016-05-22T04:50:30.462Z,5596
2016-05-22T04:51:30.292Z,5620
2016-05-22T04:52:30.420Z,5652
2016-05-22T04:53:30.250Z,5696
2016-05-22T04:54:30.066Z,5756
2016-05-22T04:55:30.350Z,5852
2016-05-22T04:56:30.352Z,5976
2016-05-22T04:57:30.339Z,6124
2016-05-22T04:58:30.311Z,6248
2016-05-22T04:59:30.283Z,6348
2016-05-22T05:00:30.269Z,6444
2016-05-22T05:01:30.257Z,6580
2016-05-22T05:02:30.243Z,6768
2016-05-22T05:03:30.074Z,6992
2016-05-22T05:04:30.046Z,7244
2016-05-22T05:05:30.189Z,7440
2016-05-22T05:06:30.176Z,7560
2016-05-22T05:07:30.007Z,7664
2016-05-22T05:08:29.994Z,7780
2016-05-22T05:09:30.121Z,7924
2016-05-22T05:10:30.125Z,8056
2016-05-22T05:11:30.096Z,8220
2016-05-22T05:12:30.067Z,8372
2016-05-22T05:13:29.898Z,8520
2016-05-22T05:14:30.042Z,8664
2016-05-22T05:15:30.044Z,8784
2016-05-22T05:16:30.016Z,8856
2016-05-22T05:17:30.003Z,8832
2016-05-22T05:18:29.973Z,8808
2016-05-22T05:19:29.961Z,8748
2016-05-22T05:20:29.948Z,8552
2016-05-22T05:21:29.936Z,8076
2016-05-22T05:22:29.923Z,7824
2016-05-22T05:23:29.910Z,7800
2016-05-22T05:24:29.989Z,8196
2016-05-22T05:25:29.867Z,8604
2016-05-22T05:26:29.871Z,8920
2016-05-22T05:27:30.342Z,9220
2016-05-22T05:28:29.689Z,10052
2016-05-22T05:29:29.645Z,10704
2016-05-22T05:30:29.631Z,10680
2016-05-22T05:31:29.774Z,10692
2016-05-22T05:32:29.762Z,11080
2016-05-22T05:33:29.749Z,11872
2016-05-22T05:34:29.736Z,11088
2016-05-22T05:35:29.724Z,10452
2016-05-22T05:36:29.695Z,11348
2016-05-22T05:37:29.682Z,11388
2016-05-22T05:38:29.669Z,12924
2016-05-22T05:39:29.655Z,13412
2016-05-22T05:40:29.643Z,12948
2016-05-22T05:41:29.630Z,13072
2016-05-22T05:42:29.899Z,12712
2016-05-22T05:43:29.995Z,11016
2016-05-22T05:44:29.606Z,11768
2016-05-22T05:45:29.578Z,13688
2016-05-22T05:46:29.409Z,12504
2016-05-22T05:47:29.551Z,13680
2016-05-22T05:48:29.524Z,14040
2016-05-22T05:49:29.511Z,13904
2016-05-22T05:50:29.342Z,13644
2016-05-22T05:51:29.484Z,13420
2016-05-22T05:52:29.316Z,13856
2016-05-22T05:53:29.459Z,13564
2016-05-22T05:54:29.446Z,14192
2016-05-22T05:55:29.433Z,14544
2016-05-22T05:56:29.420Z,14808
2016-05-22T05:57:29.408Z,15016
2016-05-22T05:58:29.503Z,14632
2016-05-22T05:59:29.381Z,14324
2016-05-22T06:00:29.369Z,16116
2016-05-22T06:01:29.043Z,16760
2016-05-22T06:02:29.342Z,17408
2016-05-22T06:03:29.329Z,17760
2016-05-22T06:04:29.177Z,17440
2016-05-22T06:05:29.304Z,17696
2016-05-22T06:06:29.291Z,17952
2016-05-22T06:07:29.278Z,19040
2016-05-22T06:08:29.265Z,18464
2016-05-22T06:09:29.252Z,21056
2016-05-22T06:10:29.239Z,25344
2016-05-22T06:11:29.085Z,19168
2016-05-22T06:12:29.229Z,18464
2016-05-22T06:13:29.201Z,19680
2016-05-22T06:14:29.204Z,18848
2016-05-22T06:15:29.034Z,28192
2016-05-22T06:16:29.021Z,22304
2016-05-22T06:17:29.008Z,23808
2016-05-22T06:18:29.152Z,21088
2016-05-22T06:19:29.154Z,23072
2016-05-22T06:20:29.125Z,21248
2016-05-22T06:21:28.972Z,20576
2016-05-22T06:22:29.100Z,23392
2016-05-22T06:23:28.946Z,20864
2016-05-22T06:24:29.090Z,20096
2016-05-22T06:25:28.920Z,20032
2016-05-22T06:26:29.063Z,20224
2016-05-22T06:27:29.051Z,18784
2016-05-22T06:28:29.147Z,18336
2016-05-22T06:29:29.025Z,17728
2016-05-22T06:30:28.872Z,17376
2016-05-22T06:31:28.859Z,17376
2016-05-22T06:32:29.001Z,17792
2016-05-22T06:33:28.972Z,18816
2016-05-22T06:34:28.819Z,24064
2016-05-22T06:35:28.978Z,24800
2016-05-22T06:36:28.950Z,31168
2016-05-22T06:37:28.780Z,24896
2016-05-22T06:38:28.938Z,23072
2016-05-22T06:39:28.770Z,21088
2016-05-22T06:40:28.913Z,18688
2016-05-22T06:41:28.901Z,18784
2016-05-22T06:42:28.888Z,19168
2016-05-22T06:43:28.594Z,20160
2016-05-22T06:44:28.862Z,19264
2016-05-22T06:45:28.864Z,23520
2016-05-22T06:46:28.836Z,24576
2016-05-22T06:47:28.838Z,28640
2016-05-22T06:48:28.826Z,25184
2016-05-22T06:49:28.657Z,22400
2016-05-22T06:50:28.800Z,22784
2016-05-22T06:51:28.630Z,22464
2016-05-22T06:52:28.633Z,22400
2016-05-22T06:53:28.776Z,21664
2016-05-22T06:54:28.764Z,22368
2016-05-22T06:55:28.782Z,23200
2016-05-22T06:56:28.753Z,22080
2016-05-22T06:57:28.740Z,24704
2016-05-22T06:58:29.025Z,27840
2016-05-22T06:59:28.714Z,27424
2016-05-22T07:00:28.703Z,26464
2016-05-22T07:01:28.689Z,24992
2016-05-22T07:02:28.691Z,24352
2016-05-22T07:03:28.522Z,26368
2016-05-22T07:04:28.666Z,27104
2016-05-22T07:05:28.652Z,27904
2016-05-22T07:06:28.671Z,26592
2016-05-22T07:07:28.642Z,29568
2016-05-22T07:08:28.630Z,30720
2016-05-22T07:09:28.616Z,22368
2016-05-22T07:10:28.604Z,22016
2016-05-22T07:11:28.607Z,27712
2016-05-22T07:12:28.593Z,25408
2016-05-22T07:13:29.065Z,23936
2016-05-22T07:14:28.568Z,27360
2016-05-22T07:15:28.554Z,34976
2016-05-22T07:16:28.541Z,34688
2016-05-22T07:17:28.544Z,32736
2016-05-22T07:18:28.532Z,31968
2016-05-22T07:19:28.518Z,36544
2016-05-22T07:20:28.521Z,38656
2016-05-22T07:21:28.509Z,38688
2016-05-22T07:22:28.512Z,35904
2016-05-22T07:23:28.498Z,36512
2016-05-22T07:24:28.485Z,34752
2016-05-22T07:25:28.473Z,36256
2016-05-22T07:26:28.459Z,32448
2016-05-22T07:27:28.306Z,32288
2016-05-22T07:28:28.464Z,32416
2016-05-22T07:29:28.280Z,31520
2016-05-22T07:30:28.423Z,32096
2016-05-22T07:31:28.411Z,32576
2016-05-22T07:32:28.428Z,31648
2016-05-22T07:33:28.399Z,34624
2016-05-22T07:34:28.386Z,35648
2016-05-22T07:35:28.390Z,35200
2016-05-22T07:36:28.392Z,34272
2016-05-22T07:37:28.364Z,30752
2016-05-22T07:38:28.210Z,29696
2016-05-22T07:39:28.197Z,28384
2016-05-22T07:40:28.340Z,23904
2016-05-22T07:41:28.343Z,23072
2016-05-22T07:42:28.330Z,23840
2016-05-22T07:43:28.177Z,22688
2016-05-22T07:44:28.304Z,23168
2016-05-22T07:45:28.307Z,22720
2016-05-22T07:46:28.293Z,26656
2016-05-22T07:47:28.281Z,27712
2016-05-22T07:48:28.269Z,30944
2016-05-22T07:49:28.271Z,33568
2016-05-22T07:50:28.257Z,31232
2016-05-22T07:51:28.260Z,27744
2016-05-22T07:52:28.248Z,29472
2016-05-22T07:53:28.078Z,34048
2016-05-22T07:54:28.066Z,37664
2016-05-22T07:55:28.051Z,40160
2016-05-22T07:56:28.227Z,42144
2016-05-22T07:57:28.652Z,44736
2016-05-22T07:58:28.201Z,37056
2016-05-22T07:59:28.188Z,33568
2016-05-22T08:00:28.172Z,41120
2016-05-22T08:01:28.160Z,34752
2016-05-22T08:02:28.007Z,34464
2016-05-22T08:03:28.150Z,36704
2016-05-22T08:04:28.136Z,36384
2016-05-22T08:05:28.140Z,38144
2016-05-22T08:06:28.127Z,37344
2016-05-22T08:07:27.972Z,41408
2016-05-22T08:08:27.803Z,40960
2016-05-22T08:09:28.103Z,41088
2016-05-22T08:10:28.091Z,40544
2016-05-22T08:11:28.094Z,39584
2016-05-22T08:12:27.939Z,46048
2016-05-22T08:13:27.927Z,41376
2016-05-22T08:14:28.069Z,43808
2016-05-22T08:15:27.916Z,34624
2016-05-22T08:16:28.059Z,48544
2016-05-22T08:17:28.046Z,44704
2016-05-22T08:18:28.034Z,43424
2016-05-22T08:19:28.037Z,44640
2016-05-22T08:20:27.867Z,46688
2016-05-22T08:21:27.885Z,50368
2016-05-22T08:22:27.998Z,48160
2016-05-22T08:23:28.001Z,50144
2016-05-22T08:24:27.831Z,47104
2016-05-22T08:25:27.990Z,59680
2016-05-22T08:26:27.837Z,62080
2016-05-22T08:27:27.964Z,55776
2016-05-22T08:28:28.201Z,60128
2016-05-22T08:29:27.954Z,49952
2016-05-22T08:30:27.957Z,54912
2016-05-22T08:31:27.959Z,57632
2016-05-22T08:32:27.947Z,60224
2016-05-22T08:33:27.933Z,59872
2016-05-22T08:34:27.937Z,59360
2016-05-22T08:35:27.923Z,62208
2016-05-22T08:36:27.926Z,61856
2016-05-22T08:37:27.913Z,63264
2016-05-22T08:38:27.759Z,59680
2016-05-22T08:39:27.902Z,58336
2016-05-22T08:40:27.906Z,59232
2016-05-22T08:41:27.736Z,63840
2016-05-22T08:42:27.895Z,60800
2016-05-22T08:43:27.960Z,60800
2016-05-22T08:44:27.900Z,64768
2016-05-22T08:45:27.732Z,61920
2016-05-22T08:46:27.719Z,58016
2016-05-22T08:47:27.862Z,56736
2016-05-22T08:48:27.568Z,53344
2016-05-22T08:49:27.851Z,54272
2016-05-22T08:50:27.854Z,58080
2016-05-22T08:51:27.857Z,58208
2016-05-22T08:52:27.859Z,60768
2016-05-22T08:53:27.690Z,59296
2016-05-22T08:54:27.849Z,61152
2016-05-22T08:55:27.837Z,60320
2016-05-22T08:56:27.839Z,58496
2016-05-22T08:57:27.842Z,47392
2016-05-22T08:58:27.845Z,55136
2016-05-22T08:59:27.815Z,54112
2016-05-22T09:00:27.818Z,48480
2016-05-22T09:01:27.820Z,57824
2016-05-22T09:02:27.808Z,51488
2016-05-22T09:03:27.826Z,58048
2016-05-22T09:04:27.814Z,57568
2016-05-22T09:05:27.800Z,51872
2016-05-22T09:06:27.803Z,49952
2016-05-22T09:07:27.791Z,43872
2016-05-22T09:08:27.794Z,44224
2016-05-22T09:09:27.780Z,52000
2016-05-22T09:10:27.627Z,49824
2016-05-22T09:11:27.614Z,53216
2016-05-22T09:12:27.772Z,55840
2016-05-22T09:13:27.682Z,58944
2016-05-22T09:14:27.763Z,58496
2016-05-22T09:15:27.766Z,60000
2016-05-22T09:16:27.752Z,60064
2016-05-22T09:17:27.598Z,45184
2016-05-22T09:18:27.741Z,54240
2016-05-22T09:19:27.588Z,37696
2016-05-22T09:20:27.732Z,35648
2016-05-22T09:21:27.578Z,35616
2016-05-22T09:22:27.721Z,37312
2016-05-22T09:23:27.724Z,47552
2016-05-22T09:24:27.790Z,39584
2016-05-22T09:25:27.729Z,41664
2016-05-22T09:26:27.717Z,49152
2016-05-22T09:27:27.704Z,60160
2016-05-22T09:28:27.550Z,56352
2016-05-22T09:29:27.537Z,57984
2016-05-22T09:30:27.696Z,60672
2016-05-22T09:31:27.684Z,53472
2016-05-22T09:32:27.671Z,56160
2016-05-22T09:33:27.673Z,51072
2016-05-22T09:34:27.519Z,48704
2016-05-22T09:35:27.506Z,48256
2016-05-22T09:36:27.509Z,46720
2016-05-22T09:37:27.667Z,43552
2016-05-22T09:38:27.655Z,43200
2016-05-22T09:39:27.642Z,42368
2016-05-22T09:40:27.630Z,43072
2016-05-22T09:41:27.632Z,43936
2016-05-22T09:42:27.478Z,45056
2016-05-22T09:43:27.372Z,45696
2016-05-22T09:44:27.468Z,47808
2016-05-22T09:45:27.611Z,48448
2016-05-22T09:46:27.599Z,47776
2016-05-22T09:47:27.602Z,47200
2016-05-22T09:48:27.432Z,46432
2016-05-22T09:49:27.591Z,44640
2016-05-22T09:50:27.438Z,40064
2016-05-22T09:51:27.580Z,42560
2016-05-22T09:52:27.568Z,45024
2016-05-22T09:53:27.571Z,45472
2016-05-22T09:54:27.574Z,46240
2016-05-22T09:55:27.560Z,46624
2016-05-22T09:56:27.407Z,45184
2016-05-22T09:57:27.550Z,41760
2016-05-22T09:58:27.537Z,40320
2016-05-22T09:59:27.540Z,39584
2016-05-22T10:00:27.526Z,38880
2016-05-22T10:01:27.373Z,39520
2016-05-22T10:02:27.517Z,41728
2016-05-22T10:03:27.362Z,44544
2016-05-22T10:04:27.350Z,47328
2016-05-22T10:05:27.493Z,47456
2016-05-22T10:06:27.496Z,46752
2016-05-22T10:07:27.328Z,45728
2016-05-22T10:08:27.486Z,45600
2016-05-22T10:09:27.473Z,40640
2016-05-22T10:10:27.475Z,38560
2016-05-22T10:11:27.463Z,39488
2016-05-22T10:12:27.309Z,37696
2016-05-22T10:13:28.671Z,40384
2016-05-22T10:14:27.439Z,39808
2016-05-22T10:15:27.442Z,39296
2016-05-22T10:16:27.429Z,41216
2016-05-22T10:17:27.276Z,41344
2016-05-22T10:18:27.418Z,43360
2016-05-22T10:19:27.406Z,43008
2016-05-22T10:20:27.408Z,41824
2016-05-22T10:21:27.396Z,38208
2016-05-22T10:22:27.399Z,35328
2016-05-22T10:23:27.385Z,39104
2016-05-22T10:24:27.373Z,36608
2016-05-22T10:25:27.376Z,33216
2016-05-22T10:26:27.378Z,31264
2016-05-22T10:27:27.209Z,29056
2016-05-22T10:28:27.509Z,30272
2016-05-22T10:29:27.339Z,54848
2016-05-22T10:30:27.342Z,60768
2016-05-22T10:31:27.328Z,41856
2016-05-22T10:32:27.332Z,46208
2016-05-22T10:33:27.319Z,90304
2016-05-22T10:34:27.368Z,53760
2016-05-22T10:35:27.153Z,77632
2016-05-22T10:36:27.296Z,84384
2016-05-22T10:37:27.314Z,78752
2016-05-22T10:38:27.286Z,96320
2016-05-22T10:39:27.288Z,86624
2016-05-22T10:40:27.275Z,86272
2016-05-22T10:41:27.262Z,83552
2016-05-22T10:42:27.265Z,69856
2016-05-22T10:43:27.330Z,87040
2016-05-22T10:44:27.255Z,98400
2016-05-22T10:45:27.257Z,59648
2016-05-22T10:46:27.245Z,79552
2016-05-22T10:47:27.246Z,70432
2016-05-22T10:48:27.249Z,36128
2016-05-22T10:49:27.236Z,33792
2016-05-22T10:50:27.239Z,31744
2016-05-22T10:51:27.071Z,28992
2016-05-22T10:52:27.229Z,26304
2016-05-22T10:53:27.232Z,24576
2016-05-22T10:54:27.235Z,25120
2016-05-22T10:55:27.222Z,28672
2016-05-22T10:56:27.225Z,38848
2016-05-22T10:57:27.054Z,45568
2016-05-22T10:58:27.073Z,46976
2016-05-22T10:59:27.045Z,81728
2016-05-22T11:00:27.204Z,62240
2016-05-22T11:01:27.191Z,56928
2016-05-22T11:02:27.178Z,68352
2016-05-22T11:03:27.024Z,49696
2016-05-22T11:04:27.168Z,46272
2016-05-22T11:05:27.015Z,66592
2016-05-22T11:06:27.157Z,53920
2016-05-22T11:07:27.191Z,56192
2016-05-22T11:08:27.006Z,67264
2016-05-22T11:09:26.994Z,53920
2016-05-22T11:10:26.980Z,45888
2016-05-22T11:11:27.140Z,43264
2016-05-22T11:12:26.986Z,43616
2016-05-22T11:13:27.145Z,45152
2016-05-22T11:14:27.116Z,41376
2016-05-22T11:15:27.135Z,41664
2016-05-22T11:16:26.966Z,41952
2016-05-22T11:17:27.125Z,48064
2016-05-22T11:18:27.096Z,73472
2016-05-22T11:19:27.114Z,51040
2016-05-22T11:20:27.085Z,79712
2016-05-22T11:21:27.088Z,43328
2016-05-22T11:22:27.075Z,38080
2016-05-22T11:23:27.078Z,37824
2016-05-22T11:24:27.066Z,40960
2016-05-22T11:25:27.068Z,41888
2016-05-22T11:26:27.055Z,42496
2016-05-22T11:27:27.043Z,42176
2016-05-22T11:28:27.045Z,38784
2016-05-22T11:29:27.032Z,38080
2016-05-22T11:30:27.034Z,37792
2016-05-22T11:31:27.037Z,38976
2016-05-22T11:32:26.852Z,40800
2016-05-22T11:33:27.027Z,72576
2016-05-22T11:34:27.015Z,93248
2016-05-22T11:35:27.001Z,70240
2016-05-22T11:36:26.988Z,60608
2016-05-22T11:37:26.991Z,88640
2016-05-22T11:38:26.978Z,70624
2016-05-22T11:39:26.981Z,45152
2016-05-22T11:40:26.983Z,48960
2016-05-22T11:41:27.001Z,40576
2016-05-22T11:42:26.973Z,55648
2016-05-22T11:43:27.336Z,46208
2016-05-22T11:44:26.963Z,50208
2016-05-22T11:45:26.950Z,45504
2016-05-22T11:46:26.953Z,65984
2016-05-22T11:47:26.972Z,82432
2016-05-22T11:48:26.942Z,77088
2016-05-22T11:49:26.944Z,70784
2016-05-22T11:50:26.776Z,53824
2016-05-22T11:51:26.935Z,51808
2016-05-22T11:52:26.922Z,59616
2016-05-22T11:53:26.784Z,47584
2016-05-22T11:54:26.911Z,49536
2016-05-22T11:55:26.930Z,53184
2016-05-22T11:56:26.902Z,53024
2016-05-22T11:57:26.904Z,38848
2016-05-22T11:58:26.891Z,38336
2016-05-22T11:59:26.893Z,52960
2016-05-22T12:00:26.740Z,58624
2016-05-22T12:01:26.993Z,43552
2016-05-22T12:02:26.574Z,46400
2016-05-22T12:03:26.874Z,42272
2016-05-22T12:04:26.720Z,37984
2016-05-22T12:05:26.879Z,51616
2016-05-22T12:06:26.865Z,60640
2016-05-22T12:07:26.868Z,63264
2016-05-22T12:08:26.856Z,61184
2016-05-22T12:09:26.858Z,47872
2016-05-22T12:10:26.845Z,45600
2016-05-22T12:11:26.848Z,40000
2016-05-22T12:12:26.679Z,32384
2016-05-22T12:13:27.526Z,34816
2016-05-22T12:14:26.839Z,35328
2016-05-22T12:15:26.687Z,35904
2016-05-22T12:16:26.830Z,37248
2016-05-22T12:17:26.817Z,36064
2016-05-22T12:18:26.820Z,35712
2016-05-22T12:19:26.807Z,34368
2016-05-22T12:20:26.810Z,32352
2016-05-22T12:21:26.780Z,31328
2016-05-22T12:22:26.799Z,31136
2016-05-22T12:23:26.630Z,30080
2016-05-22T12:24:26.617Z,28576
2016-05-22T12:25:26.777Z,27808
2016-05-22T12:26:26.608Z,28480
2016-05-22T12:27:26.766Z,29216
2016-05-22T12:28:27.096Z,28864
2016-05-22T12:29:26.740Z,28992
2016-05-22T12:30:26.571Z,32768
2016-05-22T12:31:26.729Z,35040
2016-05-22T12:32:26.732Z,35296
2016-05-22T12:33:26.563Z,36416
2016-05-22T12:34:26.706Z,35744
2016-05-22T12:35:26.553Z,35840
2016-05-22T12:36:26.709Z,36672
2016-05-22T12:37:26.718Z,37664
2016-05-22T12:38:26.741Z,38240
2016-05-22T12:39:26.747Z,37888
2016-05-22T12:40:26.769Z,37888
2016-05-22T12:41:26.767Z,39008
2016-05-22T12:42:26.762Z,36832
2016-05-22T12:43:26.787Z,35008
2016-05-22T12:44:26.609Z,32480
2016-05-22T12:45:26.760Z,29504
2016-05-22T12:46:26.750Z,27264
2016-05-22T12:47:26.756Z,25504
2016-05-22T12:48:26.589Z,24192
2016-05-22T12:49:26.736Z,24384
2016-05-22T12:50:26.583Z,26080
2016-05-22T12:51:26.729Z,28352
2016-05-22T12:52:26.716Z,30848
2016-05-22T12:53:26.424Z,32416
2016-05-22T12:54:26.708Z,34720
2016-05-22T12:55:26.696Z,34048
2016-05-22T12:56:26.684Z,32320
2016-05-22T12:57:26.687Z,30592
2016-05-22T12:58:27.080Z,29792
2016-05-22T12:59:26.677Z,30240
2016-05-22T13:00:26.681Z,30176
2016-05-22T13:01:26.652Z,29056
2016-05-22T13:02:26.655Z,26720
2016-05-22T13:03:26.642Z,23808
2016-05-22T13:04:26.630Z,21440
2016-05-22T13:05:26.632Z,20288
2016-05-22T13:06:26.621Z,20704
2016-05-22T13:07:26.451Z,22432
2016-05-22T13:08:26.595Z,23584
2016-05-22T13:09:26.598Z,24288
2016-05-22T13:10:26.584Z,24160
2016-05-22T13:11:26.570Z,23680
2016-05-22T13:12:26.401Z,23456
2016-05-22T13:13:27.029Z,22880
2016-05-22T13:14:26.564Z,22656
2016-05-22T13:15:26.535Z,23936
2016-05-22T13:16:26.537Z,26816
2016-05-22T13:17:26.525Z,29376
2016-05-22T13:18:26.512Z,31264
2016-05-22T13:19:26.358Z,32896
2016-05-22T13:20:26.533Z,34208
2016-05-22T13:21:26.333Z,35296
2016-05-22T13:22:26.475Z,34016